Terminal Aerodrome Forecast
Issued by NWS Tampa Bay Area, FL

Home | Current Version | Previous Version | Text Only | Print | Product List | Glossary On
Versions: 1 2 3 4 5 6 7 8 9 10 11 12 13 14 15 16
000
FTUS42 KTBW 292300
TAFSRQ
TAF
KSRQ 292339Z 3000/3024 27008KT P6SM SCT035 BKN250
     FM300400 VRB04KT P6SM SCT020 BKN250
     FM301400 VRB06KT P6SM VCSH SCT020 SCT250
     FM301700 27008KT P6SM VCTS SCT025CB SCT250=

USA.gov is the U.S. government's official web portal to all federal, state and local government web resources and services.